createdAt,value
2023-05-07T00:00:25.149Z,4.43
2023-05-07T00:02:54.617Z,2.90
2023-05-07T00:05:29.226Z,4.75
2023-05-07T00:07:59.716Z,5.93
2023-05-07T00:10:29.635Z,4.85
2023-05-07T00:12:59.291Z,4.57
2023-05-07T00:15:30.661Z,4.70
2023-05-07T00:18:00.515Z,5.45
2023-05-07T00:20:30.094Z,3.97
2023-05-07T00:22:59.499Z,5.07
2023-05-07T00:25:28.885Z,4.47
2023-05-07T00:27:58.247Z,5.28
2023-05-07T00:30:29.750Z,3.55
2023-05-07T00:35:29.444Z,4.88
2023-05-07T00:37:59.253Z,8.20
2023-05-07T00:40:28.860Z,5.55
2023-05-07T00:43:09.379Z,8.10
2023-05-07T00:45:40.823Z,4.88
2023-05-07T00:48:10.361Z,6.82
2023-05-07T00:50:39.724Z,5.75
2023-05-07T00:53:14.470Z,7.18
2023-05-07T00:55:49.008Z,5.72
2023-05-07T00:58:23.571Z,7.05
2023-05-07T01:00:55.046Z,4.28
2023-05-07T01:03:24.701Z,9.30
2023-05-07T01:06:01.402Z,4.82
2023-05-07T01:08:32.327Z,5.40
2023-05-07T01:11:04.274Z,5.43
2023-05-07T01:13:40.390Z,5.65
2023-05-07T01:16:12.516Z,5.45
2023-05-07T01:18:43.229Z,4.03
2023-05-07T01:21:19.557Z,5.63
2023-05-07T01:23:51.939Z,5.03
2023-05-07T01:26:22.960Z,6.32
2023-05-07T01:28:52.425Z,7.10
2023-05-07T01:31:22.132Z,6.55
2023-05-07T01:33:53.959Z,4.53
2023-05-07T01:36:26.886Z,8.27
2023-05-07T01:39:10.048Z,5.95
2023-05-07T01:41:40.061Z,3.90
2023-05-07T01:44:10.379Z,4.68
2023-05-07T01:46:39.891Z,3.90
2023-05-07T01:49:09.591Z,4.28
2023-05-07T01:51:39.741Z,4.88
2023-05-07T01:54:10.960Z,5.57
2023-05-07T01:56:45.749Z,5.07
2023-05-07T01:59:16.039Z,4.68
2023-05-07T02:01:50.497Z,4.90
2023-05-07T02:04:19.953Z,7.43
2023-05-07T02:06:49.296Z,4.82
2023-05-07T02:09:26.910Z,6.15
2023-05-07T02:11:56.270Z,5.95
2023-05-07T02:14:26.737Z,5.22
2023-05-07T02:17:03.207Z,3.05
2023-05-07T02:19:32.775Z,4.40
2023-05-07T02:22:02.207Z,3.42
2023-05-07T02:24:35.483Z,6.13
2023-05-07T02:27:05.047Z,4.10
2023-05-07T02:29:35.982Z,4.85
2023-05-07T02:32:06.155Z,6.22
2023-05-07T02:34:35.975Z,9.32
2023-05-07T02:37:05.448Z,4.78
2023-05-07T02:39:37.797Z,5.45
2023-05-07T02:44:57.286Z,2.65
2023-05-07T02:47:27.641Z,4.03
2023-05-07T02:49:57.512Z,4.32
2023-05-07T02:52:26.986Z,6.03
2023-05-07T02:55:03.603Z,4.57
2023-05-07T02:57:34.540Z,6.18
2023-05-07T03:00:13.867Z,5.50
2023-05-07T03:02:47.595Z,5.30
2023-05-07T03:05:17.681Z,5.80
2023-05-07T03:07:48.147Z,5.82
2023-05-07T03:10:24.683Z,5.70
2023-05-07T03:12:54.087Z,4.97
2023-05-07T03:15:23.604Z,4.00
2023-05-07T03:17:53.180Z,2.72
2023-05-07T03:20:29.269Z,4.53
2023-05-07T03:22:58.887Z,3.60
2023-05-07T03:25:35.982Z,4.22
2023-05-07T03:28:06.263Z,4.57
2023-05-07T03:30:51.366Z,2.83
2023-05-07T03:33:26.041Z,3.88
2023-05-07T03:35:55.877Z,3.83
2023-05-07T03:38:32.451Z,3.83
2023-05-07T03:41:03.855Z,4.10
2023-05-07T03:43:44.178Z,3.03
2023-05-07T03:46:20.067Z,4.30
2023-05-07T03:48:50.113Z,3.75
2023-05-07T03:54:05.366Z,3.42
2023-05-07T03:56:38.060Z,4.32
2023-05-07T03:59:08.003Z,5.95
2023-05-07T04:01:37.678Z,2.97
2023-05-07T04:04:07.251Z,3.40
2023-05-07T04:06:38.639Z,3.47
2023-05-07T04:09:08.077Z,3.08
2023-05-07T04:11:42.721Z,2.40
2023-05-07T04:14:17.862Z,2.63
2023-05-07T04:16:47.190Z,2.83
2023-05-07T04:19:17.919Z,3.28
2023-05-07T04:22:00.714Z,3.22
2023-05-07T04:24:35.727Z,2.47
2023-05-07T04:27:08.613Z,3.47
2023-05-07T04:29:37.995Z,3.22
2023-05-07T04:32:18.556Z,3.47
2023-05-07T04:34:48.793Z,2.30
2023-05-07T04:37:18.213Z,3.63
2023-05-07T04:42:41.067Z,1.88
2023-05-07T04:45:13.128Z,1.95
2023-05-07T04:47:44.816Z,2.88
2023-05-07T04:50:14.633Z,2.85
2023-05-07T04:52:45.907Z,1.80
2023-05-07T04:55:21.475Z,1.40
2023-05-07T04:57:52.815Z,2.15
2023-05-07T05:00:23.648Z,1.98
2023-05-07T05:02:56.107Z,2.63
2023-05-07T05:05:31.469Z,1.85
2023-05-07T05:08:06.465Z,1.40
2023-05-07T05:10:38.352Z,1.55
2023-05-07T05:13:13.305Z,1.67
2023-05-07T05:15:43.743Z,1.30
2023-05-07T05:18:13.762Z,2.97
2023-05-07T05:20:43.398Z,1.40
2023-05-07T05:23:13.709Z,0.77
2023-05-07T05:25:43.177Z,1.95
2023-05-07T05:28:17.201Z,1.77
2023-05-07T05:30:46.649Z,1.33
2023-05-07T05:33:16.330Z,1.83
2023-05-07T05:35:45.903Z,2.30
2023-05-07T05:38:16.411Z,3.45
2023-05-07T05:40:45.806Z,0.93
2023-05-07T05:43:17.560Z,1.30
2023-05-07T05:45:52.020Z,3.45
2023-05-07T05:48:21.382Z,3.20
2023-05-07T05:50:51.621Z,5.50
2023-05-07T05:53:21.894Z,3.42
2023-05-07T05:55:52.260Z,5.30
2023-05-07T05:58:23.894Z,2.53
2023-05-07T06:00:59.368Z,1.92
2023-05-07T06:03:35.239Z,2.78
2023-05-07T06:06:08.913Z,2.80
2023-05-07T06:08:38.433Z,1.58
2023-05-07T06:11:08.169Z,2.35
2023-05-07T06:13:42.523Z,3.25
2023-05-07T06:16:11.902Z,1.85
2023-05-07T06:18:41.230Z,2.60
2023-05-07T06:21:10.702Z,3.22
2023-05-07T06:23:41.500Z,2.10
2023-05-07T06:26:16.764Z,3.10
2023-05-07T06:28:52.209Z,1.35
2023-05-07T06:31:23.985Z,1.55
2023-05-07T06:33:58.182Z,1.73
2023-05-07T06:36:33.391Z,1.35
2023-05-07T06:39:07.087Z,1.95
2023-05-07T06:41:41.476Z,2.22
2023-05-07T06:44:26.702Z,2.28
2023-05-07T06:47:09.315Z,3.17
2023-05-07T06:49:41.613Z,1.98
2023-05-07T06:52:11.579Z,1.20
2023-05-07T06:54:41.257Z,0.93
2023-05-07T06:59:48.894Z,2.13
2023-05-07T07:02:18.614Z,2.67
2023-05-07T07:04:49.892Z,1.60
2023-05-07T07:07:19.512Z,1.08
2023-05-07T07:09:56.170Z,1.33
2023-05-07T07:12:26.750Z,1.10
2023-05-07T07:14:58.089Z,1.15
2023-05-07T07:17:27.831Z,1.13
2023-05-07T07:19:58.204Z,1.95
2023-05-07T07:22:27.670Z,0.90
2023-05-07T07:24:57.094Z,1.58
2023-05-07T07:27:27.416Z,1.23
2023-05-07T07:29:59.734Z,1.63
2023-05-07T07:32:30.478Z,1.10
2023-05-07T07:35:00.236Z,1.05
2023-05-07T07:37:31.810Z,1.55
2023-05-07T07:40:01.605Z,0.95
2023-05-07T07:42:33.441Z,2.47
2023-05-07T07:45:06.772Z,2.00
2023-05-07T07:47:39.280Z,2.22
2023-05-07T07:50:10.312Z,1.25
2023-05-07T07:52:40.088Z,1.20
2023-05-07T07:55:12.771Z,3.92
2023-05-07T07:57:48.105Z,2.33
2023-05-07T08:00:20.475Z,1.90
2023-05-07T08:03:06.353Z,1.55
2023-05-07T08:05:40.194Z,2.47
2023-05-07T08:08:11.000Z,2.67
2023-05-07T08:10:42.135Z,1.15
2023-05-07T08:13:19.776Z,3.10
2023-05-07T08:15:51.967Z,1.58
2023-05-07T08:18:29.092Z,2.58
2023-05-07T08:21:00.001Z,1.73
2023-05-07T08:23:30.007Z,3.08
2023-05-07T08:25:59.995Z,4.05
2023-05-07T08:28:29.275Z,0.95
2023-05-07T08:31:01.817Z,1.27
2023-05-07T08:33:34.992Z,2.40
2023-05-07T08:38:46.268Z,3.97
2023-05-07T08:41:15.908Z,3.28
2023-05-07T08:43:51.691Z,1.38
2023-05-07T08:46:25.026Z,1.20
2023-05-07T08:48:57.870Z,0.80
2023-05-07T08:51:27.804Z,1.00
2023-05-07T08:53:57.395Z,2.80
2023-05-07T08:56:32.350Z,5.63
2023-05-07T08:59:07.277Z,1.77
2023-05-07T09:04:19.947Z,0.93
2023-05-07T09:06:53.698Z,0.98
2023-05-07T09:09:24.907Z,2.50
2023-05-07T09:12:01.600Z,1.10
2023-05-07T09:14:34.348Z,5.57
2023-05-07T09:17:13.341Z,3.70
2023-05-07T09:19:42.824Z,1.45
2023-05-07T09:22:12.169Z,2.70
2023-05-07T09:24:58.315Z,1.15
2023-05-07T09:27:30.661Z,1.27
2023-05-07T09:30:01.707Z,2.05
2023-05-07T09:32:39.409Z,1.15
2023-05-07T09:35:19.009Z,1.77
2023-05-07T09:37:55.594Z,0.70
2023-05-07T09:40:27.982Z,0.60
2023-05-07T09:43:11.454Z,1.13
2023-05-07T09:45:44.961Z,1.70
2023-05-07T09:48:24.183Z,1.08
2023-05-07T09:51:00.705Z,1.33
2023-05-07T09:53:34.482Z,2.45
2023-05-07T09:56:16.666Z,1.75
2023-05-07T09:58:47.748Z,1.02
2023-05-07T10:01:22.744Z,3.65
2023-05-07T10:03:55.910Z,1.40
2023-05-07T10:06:27.265Z,1.30
2023-05-07T10:08:57.861Z,1.13
2023-05-07T10:11:27.895Z,1.50
2023-05-07T10:13:57.879Z,1.45
2023-05-07T10:16:28.571Z,2.28
2023-05-07T10:19:01.344Z,1.77
2023-05-07T10:21:38.778Z,3.67
2023-05-07T10:24:15.230Z,1.42
2023-05-07T10:29:39.978Z,2.47
2023-05-07T10:32:42.697Z,2.60
2023-05-07T10:35:29.768Z,1.88
2023-05-07T10:38:00.916Z,2.05
2023-05-07T10:40:34.076Z,3.85
2023-05-07T10:46:14.606Z,2.67
2023-05-07T10:49:20.007Z,1.15
2023-05-07T10:52:16.620Z,1.25
2023-05-07T10:55:27.663Z,2.90
2023-05-07T10:58:31.923Z,0.80
2023-05-07T11:01:53.484Z,1.48
2023-05-07T11:04:35.474Z,1.20
2023-05-07T11:07:33.218Z,1.63
2023-05-07T11:10:09.361Z,3.03
2023-05-07T11:12:56.761Z,0.65
2023-05-07T11:15:47.170Z,1.75
2023-05-07T11:18:50.626Z,0.98
2023-05-07T11:21:38.732Z,1.45
2023-05-07T11:24:29.305Z,3.65
2023-05-07T11:27:03.775Z,3.17
2023-05-07T11:29:36.561Z,1.27
2023-05-07T11:32:17.998Z,1.55
2023-05-07T11:34:55.502Z,3.28
2023-05-07T11:37:27.503Z,1.20
2023-05-07T11:40:11.279Z,1.63
2023-05-07T11:42:43.510Z,3.25
2023-05-07T11:45:26.999Z,1.50
2023-05-07T11:47:56.447Z,2.00
2023-05-07T11:50:25.909Z,1.30
2023-05-07T11:52:55.255Z,2.65
2023-05-07T11:55:26.760Z,3.17
2023-05-07T11:57:56.085Z,1.15
2023-05-07T12:00:27.435Z,3.67
2023-05-07T12:02:57.196Z,1.25
2023-05-07T12:05:28.236Z,1.52
2023-05-07T12:07:59.706Z,2.03
2023-05-07T12:10:29.101Z,1.15
2023-05-07T12:12:58.364Z,4.63
2023-05-07T12:15:31.048Z,2.72
2023-05-07T12:18:00.566Z,1.65
2023-05-07T12:20:30.457Z,1.98
2023-05-07T12:23:00.136Z,3.67
2023-05-07T12:25:34.694Z,1.73
2023-05-07T12:28:05.619Z,3.85
2023-05-07T12:30:41.337Z,1.27
2023-05-07T12:33:11.190Z,3.40
2023-05-07T12:35:42.196Z,2.22
2023-05-07T12:38:17.406Z,1.20
2023-05-07T12:40:47.941Z,1.95
2023-05-07T12:43:21.137Z,3.60
2023-05-07T12:51:42.781Z,2.03
2023-05-07T12:54:12.215Z,5.50
2023-05-07T12:56:43.212Z,2.67
2023-05-07T12:59:18.416Z,1.77
2023-05-07T13:01:48.377Z,2.65
2023-05-07T13:04:17.677Z,3.30
2023-05-07T13:06:49.201Z,3.95
2023-05-07T13:09:35.958Z,2.13
2023-05-07T13:12:10.638Z,2.67
2023-05-07T13:14:40.005Z,1.58
2023-05-07T13:17:10.536Z,4.35
2023-05-07T13:19:40.279Z,1.27
2023-05-07T13:22:12.273Z,2.28
2023-05-07T13:24:42.604Z,3.22
2023-05-07T13:27:17.066Z,1.98
2023-05-07T13:29:51.425Z,1.83
2023-05-07T13:32:20.696Z,1.17
2023-05-07T13:34:49.952Z,1.00
2023-05-07T13:37:21.330Z,1.42
2023-05-07T13:39:50.812Z,1.70
2023-05-07T13:42:20.989Z,1.52
2023-05-07T13:44:50.542Z,1.52
2023-05-07T13:47:21.953Z,1.77
2023-05-07T13:49:52.351Z,2.38
2023-05-07T13:52:23.553Z,3.05
2023-05-07T13:54:53.558Z,2.70
2023-05-07T13:57:23.235Z,3.20
2023-05-07T13:59:58.953Z,0.70
2023-05-07T14:02:28.716Z,1.63
2023-05-07T14:04:58.035Z,2.78
2023-05-07T14:07:29.416Z,3.03
2023-05-07T14:09:59.519Z,1.83
2023-05-07T14:12:29.116Z,1.83
2023-05-07T14:14:58.649Z,1.55
2023-05-07T14:17:27.878Z,1.50
2023-05-07T14:19:57.436Z,3.35
2023-05-07T14:22:28.758Z,3.67
2023-05-07T14:25:07.111Z,1.38
2023-05-07T14:27:51.125Z,1.75
2023-05-07T14:30:20.412Z,2.20
2023-05-07T14:32:49.955Z,2.10
2023-05-07T14:35:20.116Z,2.00
2023-05-07T14:37:51.535Z,2.78
2023-05-07T14:40:21.157Z,1.70
2023-05-07T14:42:50.963Z,3.47
2023-05-07T14:45:20.363Z,3.88
2023-05-07T14:47:49.604Z,4.35
2023-05-07T14:50:18.960Z,4.30
2023-05-07T14:52:48.240Z,3.00
2023-05-07T14:55:24.903Z,1.63
2023-05-07T14:57:54.430Z,2.25
2023-05-07T15:00:23.938Z,1.65
2023-05-07T15:02:53.515Z,3.92
2023-05-07T15:05:22.840Z,4.18
2023-05-07T15:07:52.186Z,3.38
2023-05-07T15:10:28.640Z,1.48
2023-05-07T15:12:58.046Z,2.63
2023-05-07T15:15:27.367Z,1.10
2023-05-07T15:17:58.175Z,2.75
2023-05-07T15:20:27.516Z,2.00
2023-05-07T15:23:01.950Z,3.25
2023-05-07T15:25:34.411Z,1.98
2023-05-07T15:28:04.202Z,2.95
2023-05-07T15:30:33.980Z,1.92
2023-05-07T15:33:05.400Z,2.63
2023-05-07T15:35:36.012Z,2.60
2023-05-07T15:38:11.656Z,3.28
2023-05-07T15:40:44.154Z,4.22
2023-05-07T15:43:14.817Z,2.10
2023-05-07T15:45:51.009Z,1.42
2023-05-07T15:48:21.229Z,3.42
2023-05-07T15:50:50.742Z,1.30
2023-05-07T15:53:26.949Z,2.50
2023-05-07T15:55:58.381Z,1.23
2023-05-07T15:58:28.985Z,2.58
2023-05-07T16:00:58.415Z,2.53
2023-05-07T16:03:29.570Z,1.95
2023-05-07T16:06:02.570Z,1.48
2023-05-07T16:08:33.366Z,2.17
2023-05-07T16:11:04.815Z,3.25
2023-05-07T16:13:40.985Z,3.53
2023-05-07T16:16:15.362Z,2.75
2023-05-07T16:18:45.035Z,1.85
2023-05-07T16:21:14.297Z,4.35
2023-05-07T16:23:44.050Z,2.25
2023-05-07T16:26:15.681Z,2.40
2023-05-07T16:31:19.523Z,1.90
2023-05-07T16:33:48.862Z,2.80
2023-05-07T16:36:18.825Z,2.78
2023-05-07T16:38:49.536Z,2.55
2023-05-07T16:41:21.658Z,1.60
2023-05-07T16:43:57.510Z,4.03
2023-05-07T16:46:26.825Z,2.90
2023-05-07T16:48:56.655Z,2.80
2023-05-07T16:51:33.258Z,3.63
2023-05-07T16:54:02.836Z,2.63
2023-05-07T16:56:34.386Z,3.20
2023-05-07T16:59:03.808Z,2.28
2023-05-07T17:01:33.790Z,2.97
2023-05-07T17:04:03.245Z,5.45
2023-05-07T17:06:32.801Z,3.70
2023-05-07T17:09:02.091Z,2.65
2023-05-07T17:11:34.864Z,4.85
2023-05-07T17:14:05.657Z,2.38
2023-05-07T17:16:35.574Z,4.20
2023-05-07T17:19:05.192Z,3.53
2023-05-07T17:21:39.571Z,2.20
2023-05-07T17:24:10.089Z,3.35
2023-05-07T17:26:42.678Z,2.60
2023-05-07T17:29:12.106Z,4.95
2023-05-07T17:31:41.689Z,2.42
2023-05-07T17:34:11.178Z,2.53
2023-05-07T17:36:40.345Z,2.22
2023-05-07T17:39:14.575Z,6.43
2023-05-07T17:41:45.914Z,3.72
2023-05-07T17:44:15.454Z,3.08
2023-05-07T17:46:44.689Z,6.22
2023-05-07T17:49:14.110Z,4.25
2023-05-07T17:51:54.106Z,7.55
2023-05-07T17:54:30.052Z,2.42
2023-05-07T17:57:01.352Z,3.38
2023-05-07T17:59:30.823Z,5.20
2023-05-07T18:04:40.185Z,6.65
2023-05-07T18:07:09.433Z,4.88
2023-05-07T18:09:38.795Z,3.42
2023-05-07T18:12:10.586Z,6.28
2023-05-07T18:17:08.849Z,2.75
2023-05-07T18:19:38.228Z,3.72
2023-05-07T18:22:07.849Z,4.78
2023-05-07T18:24:47.258Z,7.38
2023-05-07T18:27:18.618Z,3.80
2023-05-07T18:29:48.058Z,3.58
2023-05-07T18:32:22.519Z,3.97
2023-05-07T18:34:54.020Z,3.05
2023-05-07T18:37:28.800Z,2.47
2023-05-07T18:39:57.993Z,3.72
2023-05-07T18:42:30.054Z,4.93
2023-05-07T18:45:00.151Z,3.65
2023-05-07T18:47:29.667Z,3.83
2023-05-07T18:50:00.048Z,3.83
2023-05-07T18:52:35.414Z,3.55
2023-05-07T18:55:05.265Z,6.30
2023-05-07T18:57:36.896Z,8.52
2023-05-07T19:00:08.995Z,7.05
2023-05-07T19:02:38.399Z,7.20
2023-05-07T19:05:24.431Z,5.03
2023-05-07T19:07:53.970Z,6.72
2023-05-07T19:10:24.008Z,8.13
2023-05-07T19:13:00.677Z,4.55
2023-05-07T19:15:30.168Z,6.00
2023-05-07T19:17:59.597Z,3.35
2023-05-07T19:20:34.174Z,7.53
2023-05-07T19:23:03.587Z,8.88
2023-05-07T19:25:38.586Z,3.55
2023-05-07T19:28:10.042Z,3.88
2023-05-07T19:30:46.678Z,8.07
2023-05-07T19:33:16.395Z,4.30
2023-05-07T19:35:50.895Z,6.03
2023-05-07T19:38:22.158Z,4.47
2023-05-07T19:40:51.449Z,2.45
2023-05-07T19:43:23.545Z,3.28
2023-05-07T19:45:55.074Z,3.20
2023-05-07T19:48:24.617Z,3.33
2023-05-07T19:50:53.901Z,3.28
2023-05-07T19:53:23.347Z,3.42
2023-05-07T19:55:54.811Z,4.38
2023-05-07T19:58:32.744Z,7.68
2023-05-07T20:01:02.814Z,3.28
2023-05-07T20:03:33.695Z,6.10
2023-05-07T20:06:03.871Z,3.75
2023-05-07T20:08:33.160Z,5.53
2023-05-07T20:11:07.721Z,5.43
2023-05-07T20:13:44.155Z,6.72
2023-05-07T20:16:13.708Z,4.25
2023-05-07T20:18:42.999Z,10.77
2023-05-07T20:21:20.380Z,3.55
2023-05-07T20:23:49.875Z,3.10
2023-05-07T20:29:01.081Z,4.65
2023-05-07T20:31:32.259Z,2.67
2023-05-07T20:34:01.733Z,4.35
2023-05-07T20:36:31.069Z,6.03
2023-05-07T20:39:00.355Z,2.78
2023-05-07T20:41:29.685Z,4.15
2023-05-07T20:44:13.029Z,4.28
2023-05-07T20:46:42.387Z,5.13
2023-05-07T20:49:11.766Z,2.88
2023-05-07T20:51:46.607Z,4.00
2023-05-07T20:54:15.939Z,4.28
2023-05-07T20:56:45.340Z,5.80
2023-05-07T20:59:16.614Z,5.18
2023-05-07T21:01:45.997Z,5.20
2023-05-07T21:04:26.853Z,5.00
2023-05-07T21:06:56.083Z,7.75
2023-05-07T21:09:25.882Z,5.25
2023-05-07T21:11:55.304Z,4.35
2023-05-07T21:14:31.768Z,3.53
2023-05-07T21:17:01.507Z,7.03
2023-05-07T21:19:30.930Z,5.68
2023-05-07T21:22:00.715Z,5.32
2023-05-07T21:24:35.273Z,6.60
2023-05-07T21:27:04.842Z,9.75
2023-05-07T21:29:36.362Z,9.45
2023-05-07T21:32:06.226Z,13.48
2023-05-07T21:34:35.669Z,29.70
2023-05-07T21:37:10.179Z,27.63
2023-05-07T21:39:39.551Z,38.70
2023-05-07T21:42:09.128Z,36.70
2023-05-07T21:44:40.616Z,64.05
2023-05-07T21:47:15.189Z,51.72
2023-05-07T21:49:44.550Z,45.28
2023-05-07T21:52:14.369Z,42.08
2023-05-07T21:54:44.379Z,34.78
2023-05-07T21:57:13.665Z,28.23
2023-05-07T21:59:45.015Z,27.65
2023-05-07T22:02:24.507Z,19.17
2023-05-07T22:04:53.934Z,13.93
2023-05-07T22:07:23.243Z,18.00
2023-05-07T22:09:52.649Z,16.15
2023-05-07T22:12:21.998Z,14.45
2023-05-07T22:14:53.406Z,11.80
2023-05-07T22:17:24.141Z,11.00
2023-05-07T22:19:53.796Z,12.10
2023-05-07T22:22:23.058Z,12.25
2023-05-07T22:24:52.649Z,11.98
2023-05-07T22:27:21.771Z,9.30
2023-05-07T22:32:28.015Z,10.88
2023-05-07T22:34:57.340Z,7.25
2023-05-07T22:37:26.821Z,10.65
2023-05-07T22:39:56.178Z,10.73
2023-05-07T22:42:25.721Z,9.55
2023-05-07T22:44:58.154Z,10.90
2023-05-07T22:47:27.615Z,7.35
2023-05-07T22:49:56.825Z,13.38
2023-05-07T22:52:34.176Z,5.18
2023-05-07T22:55:03.593Z,4.55
2023-05-07T22:57:38.038Z,6.95
2023-05-07T23:00:15.744Z,5.30
2023-05-07T23:02:45.756Z,4.28
2023-05-07T23:05:15.234Z,5.30
2023-05-07T23:07:44.465Z,3.92
2023-05-07T23:12:50.395Z,5.20
2023-05-07T23:15:22.367Z,5.43
2023-05-07T23:17:56.818Z,5.15
2023-05-07T23:20:37.221Z,4.82
2023-05-07T23:25:41.950Z,5.25
2023-05-07T23:28:11.175Z,4.32
2023-05-07T23:30:42.885Z,5.15
2023-05-07T23:33:12.248Z,7.22
2023-05-07T23:35:41.473Z,7.22
2023-05-07T23:38:11.039Z,6.35
2023-05-07T23:40:40.383Z,6.85
2023-05-07T23:43:09.680Z,5.20
2023-05-07T23:45:38.911Z,4.60
2023-05-07T23:48:10.658Z,4.53
2023-05-07T23:50:45.032Z,6.90
2023-05-07T23:53:14.444Z,6.13
2023-05-07T23:55:43.876Z,5.88
2023-05-07T23:58:18.315Z,6.53
